Flight Track Log - Related Links

Times and Time Zones

All times are in EDT time to prevent confusion due to time zone crossing. See the PN6209 flight status page for this flight to view local times or setup timezone preferences in your user account.

Time Position Orientation Groundspeed Altitude Reporting Facility
EDT Latitude Longitude Course Direction KTS MPH feet Rate Location/Type
Wed 10:50:00 PM 33.1915 105.3488 76° East  Level Estimated
Wed 10:51:00 PM 33.2157 105.4742 77° East  Level Estimated
Wed 10:52:00 PM 33.2398 105.5997 77° East  Level Estimated
Wed 10:53:00 PM 33.2637 105.7253 77° East  Level Estimated
Wed 10:54:00 PM 33.2876 105.8509 77° East  Level Estimated
Wed 10:55:00 PM 33.3112 105.9766 77° East  Level Estimated
Wed 10:56:00 PM 33.3348 106.1024 77° East  Level Estimated
Wed 10:57:00 PM 33.3582 106.2283 77° East  Level Estimated
Wed 10:58:00 PM 33.3815 106.3542 77° East  Level Estimated
Wed 10:59:00 PM 33.4047 106.4802 78° East  Level Estimated
Wed 11:00:00 PM 33.4278 106.6062 78° East  Level Estimated
Wed 11:01:00 PM 33.4507 106.7323 78° East  Level Estimated
Wed 11:02:00 PM 33.4735 106.8585 78° East  Level Estimated
Wed 11:03:00 PM 33.4962 106.9848 78° East  Level Estimated
Wed 11:04:00 PM 33.5187 107.1111 78° East  Level Estimated
Wed 11:05:00 PM 33.5411 107.2375 78° East  Level Estimated
Wed 11:06:00 PM 33.5634 107.3639 78° East  Level Estimated
Wed 11:07:00 PM 33.5856 107.4904 78° East  Level Estimated
Wed 11:08:00 PM 33.6076 107.6170 78° East  Level Estimated
Wed 11:09:00 PM 33.6295 107.7437 78° East  Level Estimated
Wed 11:10:00 PM 33.6513 107.8704 78° East  Level Estimated
Wed 11:11:00 PM 33.6729 107.9971 78° East  Level Estimated
Wed 11:12:00 PM 33.6944 108.1240 78° East  Level Estimated
Wed 11:13:00 PM 33.7158 108.2509 79° East  Level Estimated
Wed 11:14:00 PM 33.7371 108.3778 79° East  Level Estimated
Wed 11:15:00 PM 33.7582 108.5048 79° East  Level Estimated
Wed 11:16:00 PM 33.7792 108.6319 79° East  Level Estimated
Wed 11:17:00 PM 33.8000 108.7591 79° East  Level Estimated
Wed 11:18:00 PM 33.8208 108.8863 79° East  Level Estimated
Wed 11:19:00 PM 33.8414 109.0136 79° East  Level Estimated
Wed 11:20:00 PM 33.8618 109.1409 79° East  Level Estimated
Wed 11:21:00 PM 33.8822 109.2683 79° East  Level Estimated
Wed 11:22:00 PM 33.9024 109.3957 79° East  Level Estimated
Wed 11:23:00 PM 33.9225 109.5232 79° East  Level Estimated
Wed 11:24:00 PM 33.9424 109.6508 79° East  Level Estimated
Wed 11:25:00 PM 33.9622 109.7784 79° East  Level Estimated
Wed 11:26:00 PM 33.9819 109.9061 79° East  Level Estimated
Wed 11:27:00 PM 34.0014 110.0339 80° East  Level Estimated
Wed 11:28:00 PM 34.0209 110.1617 80° East  Level Estimated
Wed 11:29:00 PM 34.0401 110.2896 80° East  Level Estimated
Wed 11:30:00 PM 34.0593 110.4175 80° East  Level Estimated
Wed 11:31:00 PM 34.0783 110.5455 80° East  Level Estimated
Wed 11:32:00 PM 34.0972 110.6735 80° East  Level Estimated
Wed 11:33:00 PM 34.1160 110.8016 80° East  Level Estimated
Wed 11:34:00 PM 34.1346 110.9298 80° East  Level Estimated
Wed 11:35:00 PM 34.1531 111.0580 80° East  Level Estimated
Wed 11:36:00 PM 34.1714 111.1862 80° East  Level Estimated
Wed 11:37:00 PM 34.1896 111.3146 80° East  Level Estimated
Wed 11:38:00 PM 34.2077 111.4429 80° East  Level Estimated
Wed 11:39:00 PM 34.2257 111.5714 80° East  Level Estimated
Wed 11:40:00 PM 34.2435 111.6999 80° East  Level Estimated
Wed 11:41:00 PM 34.2612 111.8284 81° East  Level Estimated
Wed 11:42:00 PM 34.2787 111.9570 81° East  Level Estimated
Wed 11:43:00 PM 34.2962 112.0856 81° East  Level Estimated
Wed 11:44:00 PM 34.3134 112.2143 81° East  Level Estimated
Wed 11:45:00 PM 34.3306 112.3431 81° East  Level Estimated
Wed 11:46:00 PM 34.3476 112.4719 81° East  Level Estimated
Wed 11:47:00 PM 34.3645 112.6008 81° East  Level Estimated
Wed 11:48:00 PM 34.3812 112.7297 81° East  Level Estimated
Wed 11:49:00 PM 34.3978 112.8586 81° East  Level Estimated
Wed 11:50:00 PM 34.4143 112.9876 81° East  Level Estimated
Wed 11:51:00 PM 34.4306 113.1167 81° East  Level Estimated
Wed 11:52:00 PM 34.4468 113.2458 81° East  Level Estimated
Wed 11:53:00 PM 34.4629 113.3750 81° East  Level Estimated
Wed 11:54:00 PM 34.4788 113.5042 81° East  Level Estimated
Wed 11:55:00 PM 34.4946 113.6334 82° East  Level Estimated
Wed 11:56:00 PM 34.5103 113.7627 82° East  Level Estimated
Wed 11:57:00 PM 34.5197 113.8409 82° East  Level Estimated
Wed 11:58:00 PM 34.5197 113.8409 338° Northwest  Level Estimated
Wed 11:59:00 PM 34.5197 113.8409 338° Northwest  Level Estimated
Thu 12:00:00 AM 34.5197 113.8409 338° Northwest  Level Estimated
Thu 12:01:00 AM 34.5197 113.8409 338° Northwest  Level Estimated
Thu 12:02:00 AM 34.5197 113.8409 338° Northwest  Level Estimated
Thu 12:03:00 AM 34.5197 113.8409 338° Northwest  Level Estimated
Thu 12:04:00 AM 34.5197 113.8409 338° Northwest  Level Estimated
Thu 12:05:00 AM 34.5197 113.8409 338° Northwest  Level Estimated
Thu 12:06:00 AM 34.5197 113.8409 338° Northwest  Level Estimated
Thu 12:07:00 AM 34.5197 113.8409 338° Northwest  Level Estimated
Thu 12:08:00 AM 34.5197 113.8409 338° Northwest  Level Estimated
Thu 12:09:00 AM 34.5197 113.8409 338° Northwest  Level Estimated
Thu 12:10:00 AM 34.5197 113.8409 338° Northwest  Level Estimated
Thu 12:11:00 AM 34.5197 113.8409 338° Northwest  Level Estimated
Thu 12:12:00 AM 34.5197 113.8409 338° Northwest  Level Estimated
Thu 12:13:00 AM 34.5197 113.8409 338° Northwest  Level Estimated
Thu 12:14:00 AM 34.5197 113.8409 338° Northwest  Level Estimated
Thu 12:15:00 AM 34.5197 113.8409 338° Northwest  Level Estimated
Thu 12:16:00 AM 34.5197 113.8409 338° Northwest  Level Estimated
Thu 12:17:00 AM 34.5197 113.8409 338° Northwest  Level Estimated
Thu 12:18:00 AM 34.5197 113.8409 338° Northwest  Level Estimated
Thu 12:19:00 AM 34.5197 113.8409 338° Northwest  Level Estimated

Login

Don't have an account? Register now (free) for customized features, flight alerts, and more!